| time (UTC) | temp C | wind direction | speed KPH | gust KPH | rain 1hr cm | rain 24hr cm | rain mn cm | humidity % | barometer mb |
| 20260906182324 | 37 | 83 | 3.2 | 17.7 | 0.00 | 0.00 | 0.00 | 43 | 437.9 |
| 20260906181824 | 37 | 89 | 6.4 | 17.7 | 0.00 | 0.00 | 0.00 | 42 | 486.0 |
| 20260906181322 | 37 | 109 | 6.4 | 17.7 | 0.00 | 0.00 | 0.00 | 43 | 509.4 |
| 20260906180821 | 37 | 158 | 4.8 | 17.7 | 0.00 | 0.00 | 0.00 | 43 | 538.3 |
| 20260906175249 | 36 | 89 | 0.0 | 17.7 | 0.00 | 0.00 | 0.00 | 46 | 407.1 |
| 20260906174748 | 36 | 94 | 3.2 | 17.7 | 0.00 | 0.00 | 0.00 | 45 | 410.7 |
| 20260906174247 | 36 | 104 | 3.2 | 17.7 | 0.00 | 0.00 | 0.00 | 46 | 377.2 |
| 20260906173746 | 36 | 60 | 0.0 | 17.7 | 0.00 | 0.00 | 0.00 | 48 | 332.0 |
| 20260906173245 | 36 | 69 | 3.2 | 17.7 | 0.00 | 0.00 | 0.00 | 48 | 331.4 |
| 20260906172744 | 36 | 53 | 0.0 | 17.7 | 0.00 | 0.00 | 0.00 | 47 | 314.4 |
| 20260906172243 | 36 | 56 | 0.0 | 17.7 | 0.00 | 0.00 | 0.00 | 48 | 315.4 |
| 20260906171742 | 36 | 60 | 1.6 | 17.7 | 0.00 | 0.00 | 0.00 | 47 | 341.6 |
| 20260906171241 | 36 | 79 | 3.2 | 17.7 | 0.00 | 0.00 | 0.00 | 47 | 342.7 |
| 20260906170740 | 36 | 54 | 0.0 | 17.7 | 0.00 | 0.00 | 0.00 | 48 | 331.9 |
| 20260906165207 | 36 | 47 | 4.8 | 17.7 | 0.00 | 0.00 | 0.00 | 49 | 308.1 |
| 20260906164706 | 36 | 42 | 3.2 | 17.7 | 0.00 | 0.00 | 0.00 | 50 | 349.1 |
| 20260906163650 | 35 | 64 | 3.2 | 17.7 | 0.00 | 0.00 | 0.00 | 51 | 381.0 |
| 20260906163150 | 35 | 88 | 4.8 | 17.7 | 0.00 | 0.00 | 0.00 | 51 | 375.0 |
| 20260906162648 | 35 | 79 | 3.2 | 17.7 | 0.00 | 0.00 | 0.00 | 52 | 365.5 |
| 20260906162148 | 35 | 72 | 1.6 | 17.7 | 0.00 | 0.00 | 0.00 | 53 | 375.7 |
| 20260906160616 | 34 | 78 | 0.0 | 17.7 | 0.00 | 0.00 | 0.00 | 55 | 402.5 |
| 20260906160116 | 34 | 85 | 6.4 | 17.7 | 0.00 | 0.00 | 0.00 | 55 | 419.0 |
| 20260906155614 | 33 | 100 | 3.2 | 17.7 | 0.00 | 0.00 | 0.00 | 56 | 424.4 |
| 20260906155115 | 33 | 102 | 6.4 | 17.7 | 0.00 | 0.00 | 0.00 | 55 | 412.2 |
| 20260906154058 | 33 | 112 | 0.0 | 17.7 | 0.00 | 0.00 | 0.00 | 59 | 423.6 |
| 20260906153556 | 33 | 83 | 0.0 | 17.7 | 0.00 | 0.00 | 0.00 | 61 | 380.1 |
| 20260906153057 | 32 | 68 | 3.2 | 17.7 | 0.00 | 0.00 | 0.00 | 61 | 379.7 |
| 20260906152556 | 32 | 78 | 1.6 | 17.7 | 0.00 | 0.00 | 0.00 | 62 | 383.6 |
| 20260906152056 | 32 | 77 | 1.6 | 17.7 | 0.00 | 0.00 | 0.00 | 63 | 376.8 |
| 20260906151556 | 32 | 65 | 0.0 | 17.7 | 0.00 | 0.00 | 0.00 | 65 | 376.5 |
| 20260906151054 | 31 | 70 | 1.6 | 17.7 | 0.00 | 0.00 | 0.00 | 66 | 401.3 |
| 20260906150555 | 31 | 87 | 0.0 | 17.7 | 0.00 | 0.00 | 0.00 | 67 | 414.3 |
| 20260906150053 | 31 | 87 | 0.0 | 17.7 | 0.00 | 0.00 | 0.00 | 67 | 412.0 |
| 20260906145038 | 30 | 85 | 0.0 | 17.7 | 0.00 | 0.00 | 0.00 | 68 | 403.0 |
| 20260906144538 | 30 | 83 | 0.0 | 17.7 | 0.00 | 0.00 | 0.00 | 70 | 396.3 |
| 20260906143522 | 30 | 78 | 0.0 | 17.7 | 0.00 | 0.00 | 0.00 | 71 | 378.4 |
| 20260906143021 | 29 | 76 | 0.0 | 17.7 | 0.00 | 0.00 | 0.00 | 73 | 367.3 |
| 20260906142520 | 28 | 73 | 0.0 | 17.7 | 0.00 | 0.00 | 0.00 | 74 | 354.9 |
| 20260906142019 | 28 | 63 | 1.6 | 17.7 | 0.00 | 0.00 | 0.00 | 75 | 339.6 |
| 20260906141518 | 28 | 68 | 0.0 | 17.7 | 0.00 | 0.00 | 0.00 | 77 | 333.5 |
| 20260906141018 | 27 | 58 | 0.0 | 17.7 | 0.00 | 0.00 | 0.00 | 78 | 315.1 |
| 20260906140002 | 27 | 46 | 0.0 | 17.7 | 0.00 | 0.00 | 0.00 | 81 | 295.1 |
| 20260906135502 | 27 | 45 | 0.0 | 17.7 | 0.00 | 0.00 | 0.00 | 81 | 295.9 |
| 20260906135002 | 26 | 47 | 0.0 | 17.7 | 0.00 | 0.00 | 0.00 | 83 | 298.3 |
| 20260906134502 | 26 | 47 | 0.0 | 17.7 | 0.00 | 0.00 | 0.00 | 84 | 298.1 |
| 20260906134002 | 26 | 47 | 0.0 | 17.7 | 0.00 | 0.00 | 0.00 | 84 | 297.3 |
| 20260906133502 | 25 | 47 | 0.0 | 17.7 | 0.00 | 0.00 | 0.00 | 85 | 297.0 |
| 20260906133001 | 25 | 47 | 0.0 | 17.7 | 0.00 | 0.00 | 0.00 | 86 | 297.2 |
| 20260906132502 | 25 | 47 | 0.0 | 17.7 | 0.00 | 0.00 | 0.00 | 87 | 296.8 |
| 20260906132002 | 24 | 47 | 0.0 | 17.7 | 0.00 | 0.00 | 0.00 | 88 | 295.9 |
| 20260906131502 | 24 | 46 | 0.0 | 17.7 | 0.00 | 0.00 | 0.00 | 89 | 294.2 |
| 20260906131002 | 23 | 46 | 0.0 | 17.7 | 0.00 | 0.00 | 0.00 | 90 | 294.0 |
| 20260906125946 | 23 | 46 | 0.0 | 17.7 | 0.00 | 0.00 | 0.00 | 91 | 293.7 |
| 20260906125445 | 23 | 46 | 0.0 | 17.7 | 0.00 | 0.00 | 0.00 | 91 | 293.7 |
| 20260906124943 | 22 | 46 | 0.0 | 17.7 | 0.00 | 0.00 | 0.00 | 91 | 293.7 |
| 20260906124443 | 22 | 46 | 0.0 | 17.7 | 0.00 | 0.00 | 0.00 | 91 | 293.7 |
| 20260906123942 | 22 | 46 | 0.0 | 17.7 | 0.00 | 0.00 | 0.00 | 91 | 293.6 |
| 20260906123441 | 22 | 46 | 0.0 | 17.7 | 0.00 | 0.00 | 0.00 | 91 | 293.6 |
| 20260906122424 | 22 | 46 | 0.0 | 17.7 | 0.00 | 0.00 | 0.00 | 91 | 292.8 |
| 20260906121409 | 22 | 46 | 0.0 | 17.7 | 0.00 | 0.00 | 0.00 | 90 | 291.7 |
| 20260906120908 | 22 | 46 | 0.0 | 17.7 | 0.00 | 0.00 | 0.00 | 90 | 291.8 |
| 20260906120408 | 22 | 46 | 0.0 | 17.7 | 0.00 | 0.00 | 0.00 | 90 | 291.0 |
| 20260906115907 | 22 | 46 | 0.0 | 17.7 | 0.00 | 0.00 | 0.00 | 90 | 291.3 |
| 20260906115407 | 22 | 46 | 0.0 | 17.7 | 0.00 | 0.00 | 0.00 | 90 | 291.4 |
| 20260906114907 | 22 | 46 | 0.0 | 17.7 | 0.00 | 0.00 | 0.00 | 89 | 292.1 |
| 20260906114406 | 22 | 46 | 0.0 | 17.7 | 0.00 | 0.00 | 0.00 | 89 | 292.4 |
| 20260906113350 | 22 | 46 | 0.0 | 17.7 | 0.00 | 0.00 | 0.00 | 90 | 292.0 |
| 20260906112849 | 22 | 46 | 0.0 | 17.7 | 0.00 | 0.00 | 0.00 | 90 | 291.8 |
| 20260906112348 | 22 | 46 | 0.0 | 17.7 | 0.00 | 0.00 | 0.00 | 90 | 291.9 |
| 20260906111848 | 22 | 46 | 0.0 | 17.7 | 0.00 | 0.00 | 0.00 | 89 | 292.2 |
| 20260906111347 | 22 | 46 | 0.0 | 17.7 | 0.00 | 0.00 | 0.00 | 88 | 292.2 |
| 20260906110846 | 22 | 46 | 0.0 | 17.7 | 0.00 | 0.00 | 0.00 | 88 | 292.0 |
| 20260906110345 | 23 | 46 | 0.0 | 17.7 | 0.00 | 0.00 | 0.00 | 89 | 292.1 |
| 20260906105845 | 23 | 46 | 0.0 | 17.7 | 0.00 | 0.00 | 0.00 | 89 | 292.0 |
| 20260906105344 | 23 | 46 | 0.0 | 17.7 | 0.00 | 0.00 | 0.00 | 89 | 291.7 |
| 20260906104327 | 23 | 46 | 0.0 | 17.7 | 0.00 | 0.00 | 0.00 | 89 | 291.8 |
| 20260906103312 | 23 | 46 | 0.0 | 17.7 | 0.00 | 0.00 | 0.00 | 88 | 292.1 |
| 20260906102256 | 23 | 46 | 0.0 | 17.7 | 0.00 | 0.00 | 0.00 | 88 | 292.4 |
| 20260906101755 | 23 | 46 | 0.0 | 17.7 | 0.00 | 0.00 | 0.00 | 88 | 292.3 |
| 20260906100738 | 23 | 46 | 0.0 | 17.7 | 0.00 | 0.00 | 0.00 | 87 | 292.3 |
| 20260906100237 | 23 | 46 | 0.0 | 17.7 | 0.00 | 0.00 | 0.00 | 87 | 292.2 |
| 20260906095221 | 23 | 46 | 0.0 | 17.7 | 0.00 | 0.00 | 0.00 | 87 | 291.9 |
| 20260906094720 | 23 | 46 | 0.0 | 17.7 | 0.00 | 0.00 | 0.00 | 87 | 291.9 |
| 20260906093703 | 23 | 46 | 0.0 | 17.7 | 0.00 | 0.00 | 0.00 | 87 | 291.7 |
| 20260906093203 | 23 | 46 | 0.0 | 17.7 | 0.00 | 0.00 | 0.00 | 86 | 291.8 |
| 20260906092703 | 23 | 46 | 0.0 | 17.7 | 0.00 | 0.00 | 0.00 | 86 | 292.1 |
| 20260906092203 | 23 | 46 | 0.0 | 17.7 | 0.00 | 0.00 | 0.00 | 86 | 292.3 |
| 20260906091702 | 23 | 46 | 0.0 | 17.7 | 0.00 | 0.00 | 0.00 | 86 | 291.8 |
| 20260906091202 | 23 | 46 | 0.0 | 17.7 | 0.00 | 0.00 | 0.00 | 86 | 291.5 |
| 20260906090701 | 23 | 46 | 0.0 | 17.7 | 0.00 | 0.00 | 0.00 | 86 | 291.9 |
| 20260906090201 | 23 | 46 | 0.0 | 17.7 | 0.00 | 0.00 | 0.00 | 86 | 292.2 |
| 20260906084629 | 23 | 46 | 0.0 | 17.7 | 0.00 | 0.00 | 0.00 | 86 | 291.8 |
| 20260906084129 | 24 | 46 | 0.0 | 17.7 | 0.00 | 0.00 | 0.00 | 86 | 291.5 |
| 20260906083628 | 24 | 46 | 0.0 | 17.7 | 0.00 | 0.00 | 0.00 | 86 | 291.2 |
| 20260906082612 | 24 | 46 | 0.0 | 17.7 | 0.00 | 0.00 | 0.00 | 85 | 291.7 |
| 20260906082112 | 24 | 46 | 0.0 | 17.7 | 0.00 | 0.00 | 0.00 | 85 | 291.9 |
| 20260906081057 | 24 | 46 | 0.0 | 17.7 | 0.00 | 0.00 | 0.00 | 85 | 291.8 |
| 20260906080041 | 24 | 46 | 0.0 | 17.7 | 0.00 | 0.00 | 0.00 | 84 | 291.8 |
| 20260906075024 | 24 | 46 | 0.0 | 17.7 | 0.00 | 0.00 | 0.00 | 83 | 291.9 |
| 20260906074009 | 25 | 46 | 0.0 | 17.7 | 0.00 | 0.00 | 0.00 | 84 | 292.3 |
| 20260906072953 | 25 | 46 | 0.0 | 17.7 | 0.00 | 0.00 | 0.00 | 83 | 292.0 |
| 20260906072452 | 25 | 46 | 0.0 | 17.7 | 0.00 | 0.00 | 0.00 | 83 | 291.6 |
| 20260906071951 | 25 | 46 | 0.0 | 17.7 | 0.00 | 0.00 | 0.00 | 83 | 291.4 |
| 20260906071450 | 25 | 46 | 0.0 | 17.7 | 0.00 | 0.00 | 0.00 | 83 | 291.5 |
| 20260906070949 | 25 | 46 | 0.0 | 17.7 | 0.00 | 0.00 | 0.00 | 84 | 292.0 |
| 20260906070449 | 25 | 46 | 0.0 | 17.7 | 0.00 | 0.00 | 0.00 | 84 | 291.9 |
| 20260906065434 | 25 | 46 | 0.0 | 17.7 | 0.00 | 0.00 | 0.00 | 83 | 291.9 |
| 20260906064933 | 25 | 46 | 0.0 | 17.7 | 0.00 | 0.00 | 0.00 | 83 | 291.2 |
| 20260906064432 | 25 | 46 | 0.0 | 17.7 | 0.00 | 0.00 | 0.00 | 83 | 291.1 |
| 20260906063932 | 25 | 46 | 0.0 | 17.7 | 0.00 | 0.00 | 0.00 | 83 | 291.7 |
| 20260906063431 | 25 | 46 | 0.0 | 17.7 | 0.00 | 0.00 | 0.00 | 83 | 292.0 |
| 20260906062930 | 25 | 46 | 0.0 | 17.7 | 0.00 | 0.00 | 0.00 | 82 | 292.0 |
| 20260906062429 | 25 | 46 | 0.0 | 17.7 | 0.00 | 0.00 | 0.00 | 82 | 292.3 |
| 20260906061929 | 25 | 46 | 0.0 | 17.7 | 0.00 | 0.00 | 0.00 | 82 | 292.5 |
| 20260906061429 | 25 | 46 | 0.0 | 17.7 | 0.00 | 0.00 | 0.00 | 82 | 292.4 |
| 20260906060928 | 25 | 46 | 0.0 | 17.7 | 0.00 | 0.00 | 0.00 | 82 | 292.2 |
| 20260906060427 | 25 | 46 | 0.0 | 17.7 | 0.00 | 0.00 | 0.00 | 82 | 291.8 |
| 20260906055927 | 25 | 46 | 0.0 | 17.7 | 0.00 | 0.00 | 0.00 | 82 | 291.5 |
| 20260906055427 | 25 | 46 | 0.0 | 17.7 | 0.00 | 0.00 | 0.00 | 82 | 291.8 |
| 20260906054926 | 25 | 46 | 0.0 | 17.7 | 0.00 | 0.00 | 0.00 | 82 | 291.6 |
| 20260906054426 | 25 | 46 | 0.0 | 17.7 | 0.00 | 0.00 | 0.00 | 81 | 291.5 |
| 20260906053925 | 25 | 46 | 0.0 | 17.7 | 0.00 | 0.00 | 0.00 | 81 | 291.6 |
| 20260906053424 | 25 | 46 | 0.0 | 17.7 | 0.00 | 0.00 | 0.00 | 80 | 291.6 |
| 20260906052923 | 26 | 46 | 0.0 | 17.7 | 0.00 | 0.00 | 0.00 | 80 | 292.2 |
| 20260906052423 | 26 | 46 | 0.0 | 17.7 | 0.00 | 0.00 | 0.00 | 80 | 291.9 |
| 20260906051923 | 26 | 46 | 0.0 | 17.7 | 0.00 | 0.00 | 0.00 | 80 | 291.5 |
| 20260906051423 | 26 | 46 | 0.0 | 17.7 | 0.00 | 0.00 | 0.00 | 79 | 291.5 |
| 20260906050923 | 26 | 46 | 0.0 | 17.7 | 0.00 | 0.00 | 0.00 | 79 | 291.6 |
| 20260906045907 | 26 | 46 | 0.0 | 17.7 | 0.00 | 0.00 | 0.00 | 79 | 292.0 |
| 20260906044851 | 26 | 46 | 0.0 | 17.7 | 0.00 | 0.00 | 0.00 | 79 | 291.7 |
| 20260906044350 | 26 | 46 | 0.0 | 17.7 | 0.00 | 0.00 | 0.00 | 79 | 292.1 |
| 20260906043849 | 26 | 46 | 0.0 | 17.7 | 0.00 | 0.00 | 0.00 | 79 | 292.5 |
| 20260906043348 | 26 | 46 | 0.0 | 17.7 | 0.00 | 0.00 | 0.00 | 79 | 292.7 |
| 20260906042848 | 26 | 46 | 0.0 | 17.7 | 0.00 | 0.00 | 0.00 | 79 | 292.3 |
| 20260906042347 | 26 | 46 | 0.0 | 17.7 | 0.00 | 0.00 | 0.00 | 79 | 291.9 |
| 20260906041846 | 26 | 46 | 0.0 | 17.7 | 0.00 | 0.00 | 0.00 | 79 | 291.6 |
| 20260906041345 | 26 | 46 | 0.0 | 17.7 | 0.00 | 0.00 | 0.00 | 79 | 291.3 |
| 20260906040844 | 26 | 46 | 0.0 | 17.7 | 0.00 | 0.00 | 0.00 | 79 | 291.6 |
| 20260906040344 | 26 | 46 | 0.0 | 17.7 | 0.00 | 0.00 | 0.00 | 78 | 292.2 |
| 20260906035843 | 26 | 46 | 0.0 | 17.7 | 0.00 | 0.00 | 0.00 | 78 | 292.3 |
| 20260906035343 | 26 | 46 | 0.0 | 17.7 | 0.00 | 0.00 | 0.00 | 78 | 292.4 |
| 20260906034843 | 26 | 46 | 0.0 | 17.7 | 0.00 | 0.00 | 0.00 | 77 | 292.3 |
| 20260906033311 | 27 | 46 | 0.0 | 17.7 | 0.00 | 0.00 | 0.00 | 76 | 293.2 |
| 20260906032811 | 27 | 46 | 0.0 | 17.7 | 0.00 | 0.00 | 0.00 | 75 | 294.3 |
| 20260906032311 | 27 | 46 | 0.0 | 17.7 | 0.00 | 0.00 | 0.00 | 73 | 296.3 |
| 20260906031811 | 27 | 46 | 0.0 | 17.7 | 0.00 | 0.00 | 0.00 | 73 | 299.3 |
| 20260906031311 | 27 | 46 | 0.0 | 17.7 | 0.00 | 0.00 | 0.00 | 72 | 304.3 |
| 20260906030810 | 27 | 46 | 0.0 | 17.7 | 0.00 | 0.00 | 0.00 | 73 | 314.1 |
| 20260906030310 | 27 | 46 | 0.0 | 17.7 | 0.00 | 0.00 | 0.00 | 73 | 334.7 |
| 20260906025810 | 27 | 47 | 1.6 | 17.7 | 0.00 | 0.00 | 0.00 | 73 | 376.9 |
| 20260906024754 | 27 | 84 | 0.0 | 17.7 | 0.00 | 0.00 | 0.00 | 70 | 406.0 |
| 20260906023738 | 28 | 84 | 0.0 | 17.7 | 0.00 | 0.00 | 0.00 | 69 | 405.6 |
| 20260906023237 | 28 | 84 | 0.0 | 17.7 | 0.00 | 0.00 | 0.00 | 69 | 405.4 |
| 20260906022736 | 28 | 84 | 0.0 | 17.7 | 0.00 | 0.00 | 0.00 | 68 | 405.5 |
| 20260906022235 | 28 | 84 | 0.0 | 17.7 | 0.00 | 0.00 | 0.00 | 67 | 405.5 |
| 20260906021734 | 29 | 84 | 0.0 | 17.7 | 0.00 | 0.00 | 0.00 | 67 | 405.5 |
| 20260906021233 | 29 | 84 | 0.0 | 17.7 | 0.00 | 0.00 | 0.00 | 67 | 405.2 |
| 20260906020732 | 29 | 84 | 0.0 | 17.7 | 0.00 | 0.00 | 0.00 | 67 | 405.5 |
| 20260906015715 | 30 | 84 | 0.0 | 17.7 | 0.00 | 0.00 | 0.00 | 64 | 406.0 |
| 20260906015214 | 30 | 84 | 0.0 | 17.7 | 0.00 | 0.00 | 0.00 | 62 | 405.9 |
| 20260906014158 | 30 | 84 | 0.0 | 17.7 | 0.00 | 0.00 | 0.00 | 61 | 405.7 |
| 20260906013658 | 31 | 84 | 0.0 | 17.7 | 0.00 | 0.00 | 0.00 | 61 | 405.4 |
| 20260906013157 | 31 | 84 | 0.0 | 17.7 | 0.00 | 0.00 | 0.00 | 60 | 405.4 |
| 20260906012657 | 31 | 84 | 0.0 | 17.7 | 0.00 | 0.00 | 0.00 | 59 | 405.1 |
| 20260906012157 | 31 | 84 | 0.0 | 17.7 | 0.00 | 0.00 | 0.00 | 58 | 404.2 |
| 20260906011657 | 32 | 84 | 0.0 | 17.7 | 0.00 | 0.00 | 0.00 | 57 | 404.6 |
| 20260906011156 | 32 | 86 | 0.0 | 17.7 | 0.00 | 0.00 | 0.00 | 57 | 407.4 |
| 20260906010655 | 32 | 86 | 0.0 | 17.7 | 0.00 | 0.00 | 0.00 | 55 | 406.5 |
| 20260906010154 | 33 | 86 | 0.0 | 17.7 | 0.00 | 0.00 | 0.00 | 56 | 406.0 |
| 20260906005653 | 33 | 86 | 0.0 | 17.7 | 0.00 | 0.00 | 0.00 | 53 | 405.6 |
| 20260906005153 | 34 | 86 | 0.0 | 17.7 | 0.00 | 0.00 | 0.00 | 51 | 404.8 |
| 20260906004653 | 35 | 86 | 0.0 | 17.7 | 0.00 | 0.00 | 0.00 | 48 | 404.8 |
| 20260906004152 | 35 | 86 | 0.0 | 17.7 | 0.00 | 0.00 | 0.00 | 46 | 405.5 |
| 20260906003651 | 36 | 86 | 0.0 | 17.7 | 0.00 | 0.00 | 0.00 | 46 | 405.4 |
| 20260906003150 | 36 | 86 | 0.0 | 17.7 | 0.00 | 0.00 | 0.00 | 45 | 404.8 |
| 20260906001619 | 37 | 86 | 0.0 | 17.7 | 0.00 | 0.00 | 0.00 | 42 | 404.8 |
| 20260906001119 | 37 | 86 | 0.0 | 17.7 | 0.00 | 0.00 | 0.00 | 41 | 405.4 |
| 20260906000618 | 37 | 86 | 0.0 | 17.7 | 0.00 | 0.00 | 0.00 | 41 | 406.5 |
| 20260906000117 | 37 | 86 | 0.0 | 17.7 | 0.00 | 0.00 | 0.00 | 40 | 409.4 |
| 20260905235616 | 37 | 84 | 0.0 | 17.7 | 0.00 | 0.00 | 0.00 | 40 | 416.6 |
| 20260905235115 | 37 | 91 | 1.6 | 17.7 | 0.00 | 0.00 | 0.00 | 40 | 437.9 |
| 20260905234614 | 37 | 97 | 3.2 | 17.7 | 0.00 | 0.00 | 0.00 | 39 | 445.0 |
| 20260905233557 | 38 | 104 | 0.0 | 17.7 | 0.00 | 0.00 | 0.00 | 39 | 449.4 |
| 20260905233056 | 38 | 104 | 0.0 | 17.7 | 0.00 | 0.00 | 0.00 | 38 | 440.2 |
| 20260905232556 | 38 | 104 | 0.0 | 17.7 | 0.00 | 0.00 | 0.00 | 38 | 420.5 |
| 20260905232055 | 38 | 84 | 0.0 | 17.7 | 0.00 | 0.00 | 0.00 | 39 | 400.6 |
| 20260905231039 | 38 | 85 | 0.0 | 17.7 | 0.00 | 0.00 | 0.00 | 38 | 403.5 |
| 20260905230538 | 38 | 85 | 0.0 | 17.7 | 0.00 | 0.00 | 0.00 | 39 | 401.9 |
| 20260905230037 | 38 | 85 | 0.0 | 17.7 | 0.00 | 0.00 | 0.00 | 39 | 399.6 |
| 20260905225020 | 38 | 81 | 0.0 | 17.7 | 0.00 | 0.00 | 0.00 | 39 | 382.3 |
| 20260905224519 | 38 | 81 | 1.6 | 17.7 | 0.00 | 0.00 | 0.00 | 39 | 372.0 |
| 20260905224018 | 38 | 71 | 1.6 | 17.7 | 0.00 | 0.00 | 0.00 | 39 | 352.7 |
| 20260905223517 | 38 | 59 | 0.0 | 17.7 | 0.00 | 0.00 | 0.00 | 39 | 350.3 |
| 20260905223017 | 38 | 59 | 0.0 | 17.7 | 0.00 | 0.00 | 0.00 | 39 | 367.3 |
| 20260905222516 | 38 | 59 | 0.0 | 17.7 | 0.00 | 0.00 | 0.00 | 39 | 399.5 |
| 20260905222016 | 38 | 90 | 0.0 | 17.7 | 0.00 | 0.00 | 0.00 | 39 | 432.2 |
| 20260905221515 | 37 | 91 | 0.0 | 17.7 | 0.00 | 0.00 | 0.00 | 39 | 441.2 |
| 20260905221014 | 37 | 93 | 6.4 | 17.7 | 0.00 | 0.00 | 0.00 | 39 | 455.7 |
| 20260905220514 | 37 | 88 | 0.0 | 17.7 | 0.00 | 0.00 | 0.00 | 41 | 475.0 |
| 20260905220013 | 37 | 122 | 0.0 | 17.7 | 0.00 | 0.00 | 0.00 | 41 | 523.0 |
| 20260905215513 | 37 | 122 | 0.0 | 17.7 | 0.00 | 0.00 | 0.00 | 41 | 526.0 |
| 20260905215013 | 37 | 125 | 0.0 | 17.7 | 0.00 | 0.00 | 0.00 | 41 | 525.4 |
| 20260905213958 | 37 | 125 | 1.6 | 17.7 | 0.00 | 0.00 | 0.00 | 41 | 517.8 |
| 20260905213458 | 37 | 125 | 0.0 | 17.7 | 0.00 | 0.00 | 0.00 | 41 | 507.7 |
| 20260905212957 | 37 | 118 | 3.2 | 17.7 | 0.00 | 0.00 | 0.00 | 41 | 496.4 |
| 20260905212456 | 37 | 112 | 3.2 | 17.7 | 0.00 | 0.00 | 0.00 | 41 | 502.6 |
| 20260905211955 | 37 | 134 | 3.2 | 19.3 | 0.00 | 0.00 | 0.00 | 40 | 520.5 |
| 20260905211455 | 38 | 104 | 6.4 | 19.3 | 0.00 | 0.00 | 0.00 | 40 | 496.8 |
| 20260905210955 | 38 | 86 | 6.4 | 20.9 | 0.00 | 0.00 | 0.00 | 39 | 556.9 |
| 20260905205423 | 38 | 175 | 0.0 | 20.9 | 0.00 | 0.00 | 0.00 | 40 | 687.0 |
| 20260905204922 | 38 | 228 | 4.8 | 20.9 | 0.00 | 0.00 | 0.00 | 40 | 687.5 |
| 20260905203906 | 38 | 131 | 4.8 | 20.9 | 0.00 | 0.00 | 0.00 | 40 | 540.5 |
| 20260905202850 | 37 | 78 | 0.0 | 20.9 | 0.00 | 0.00 | 0.00 | 41 | 507.6 |
| 20260905202349 | 37 | 94 | 3.2 | 20.9 | 0.00 | 0.00 | 0.00 | 40 | 637.3 |
| 20260905201848 | 37 | 141 | 3.2 | 20.9 | 0.00 | 0.00 | 0.00 | 40 | 780.7 |
| 20260905200832 | 37 | 290 | 3.2 | 20.9 | 0.00 | 0.00 | 0.00 | 40 | 896.8 |
| 20260905200331 | 37 | 268 | 0.0 | 20.9 | 0.00 | 0.00 | 0.00 | 41 | 809.1 |
| 20260905195830 | 37 | 244 | 1.6 | 20.9 | 0.00 | 0.00 | 0.00 | 41 | 668.4 |
| 20260905195329 | 37 | 145 | 0.0 | 20.9 | 0.00 | 0.00 | 0.00 | 41 | 592.1 |
| 20260905194829 | 37 | 144 | 0.0 | 20.9 | 0.00 | 0.00 | 0.00 | 43 | 593.2 |
| 20260905193813 | 37 | 144 | 0.0 | 20.9 | 0.00 | 0.00 | 0.00 | 40 | 619.0 |
| 20260905193312 | 37 | 151 | 3.2 | 20.9 | 0.00 | 0.00 | 0.00 | 41 | 660.0 |
| 20260905192811 | 37 | 134 | 3.2 | 20.9 | 0.00 | 0.00 | 0.00 | 42 | 749.1 |
| 20260905192311 | 37 | 271 | 0.0 | 20.9 | 0.00 | 0.00 | 0.00 | 43 | 913.1 |
| 20260905191255 | 37 | 243 | 3.2 | 20.9 | 0.00 | 0.00 | 0.00 | 42 | 786.5 |
| 20260905190754 | 37 | 198 | 1.6 | 20.9 | 0.00 | 0.00 | 0.00 | 42 | 699.6 |
| 20260905185738 | 37 | 174 | 1.6 | 20.9 | 0.00 | 0.00 | 0.00 | 43 | 612.9 |
| 20260905185237 | 37 | 138 | 3.2 | 20.9 | 0.00 | 0.00 | 0.00 | 43 | 582.8 |
| 20260905184737 | 37 | 55 | 4.8 | 20.9 | 0.00 | 0.00 | 0.00 | 44 | 697.0 |
| 20260905184236 | 36 | 277 | 0.0 | 20.9 | 0.00 | 0.00 | 0.00 | 45 | 927.3 |
| 20260905183735 | 36 | 278 | 1.6 | 20.9 | 0.00 | 0.00 | 0.00 | 45 | 869.4 |
| 20260905183234 | 36 | 353 | 4.8 | 20.9 | 0.00 | 0.00 | 0.00 | 46 | 754.2 |
| 20260905182733 | 35 | 246 | 0.0 | 20.9 | 0.00 | 0.00 | 0.00 | 47 | 868.7 |